Virtual Norwegian is not affiliated with Norwegian Air Shuttle in any way.
If you are looking for the real "Norwegian", or you wish to book Norwegian flights, please visit Norwegian.com


We use cookies to ensure you get the best experience on our website.   ACCEPT

LHBP - BUD - Budapest (Ferihegy)

General Info Alternate Airport
ICAO: LHBP Elevation: 495 ft ICAO: LOWW
IATA: BUD Country: Hungary IATA: VIE
City: Budapest Charts: Log in to view charts City: Vienna
Name: Ferihegy Hub: No Name Schwechat
General Info
ICAO: LHBP
IATA: BUD
City: Budapest
Name: Ferihegy
Elevation: 495 ft
Country: Hungary
Charts: Log in to view charts
Hub: No
 
Alternate Airport
ICAO: LOWW
IATA: VIE
City: Vienna
Name: Schwechat

Weather
241630Z 06004KT 030V100 2500 BR OVC002 06/06 Q1020 TEMPO 1200 BCFG
Weather
241630Z 06004KT 030V100 2500 BR OVC002 06/06 Q1020 TEMPO 1200 BCFG

Runway Info
13L
Length ILS/LOC Course
3707 m 109.15 128
13R
Length ILS/LOC Course
3010 m 110.50 128
31L
Length ILS/LOC Course
3010 m 111.50 308
31R
Length ILS/LOC Course
3707 m 109.50 308

NOTAMs
NOTAMs currently unavailable.
NOTAMs
NOTAMs currently unavailable

Route map
Airport
Airport (hub)